Sidecar Motocross World Championship

Race 2

Rang N Rider Nation FMN Brand Laps FinishTime Gap Speed BestLap InLap Pts
1 9 VANLUCHENE Marvin/VAN DEN BOGAART Ben BEL/NED FMB/KNMV VMC Zabel 19 35:30.960 19 Laps 51.99 01:55.623 9 25.0
2 4 BROWN Stuart/MILLARD Joe GBR/GBR ACU/ACU WSP Husqvarna 19 35:35.377 00:04.417 51.89 01:56.443 10 22.0
3 5 HERMANS Koen/MUSSET Nicolas NED/FRA KNMV/FFM WSP Zabel 19 35:45.292 00:14.332 51.65 01:53.437 4 20.0
4 10 VELDMAN Julian/JANSSENS Glenn NED/BEL KNMV/AMF WHT Husqvarna 19 35:57.189 00:26.229 51.36 01:58.030 17 18.0
5 111 WILLEMSEN Daniel/BAX Robbie NED/NED KNMV/KNMV WSP Zabel 19 35:59.109 00:28.149 51.32 01:57.568 11 16.0
6 7 CERMAK Tomas/CERMAK Ondrej CZE/CZE ACCR/ACCR WSP Mega 19 35:59.726 00:28.766 51.30 01:57.582 10 15.0
7 2 GIRAUD Valentin/BADAIRE Johnny FRA/FRA FFM/FFM WHT Husqvarna 19 36:25.988 00:55.028 50.69 01:57.629 11 14.0
8 19 SANTERMANS Kristof/BELECKAS Konstantinas BEL/LTU FMB/FMB WSP Zabel 19 36:46.104 01:15.144 50.22 01:59.943 3 13.0
9 12 VAN WERVEN Gert/MANS Jens NED/BEL KNMV/AMF WSP TM 19 36:48.426 01:17.466 50.17 01:59.659 3 12.0
10 14 KUNNAS Riku/KUNNAS Lari FIN/FIN SML/SML WSP KTM 19 36:50.318 01:19.358 50.13 01:59.981 10 11.0
11 30 WEISS Benjamin/SCHNEIDER Patrick AUT/AUT AMF/AMF VMC Zabel 19 37:01.909 01:30.949 49.87 02:00.374 7 10.0
12 26 VEJCHODA Tomas/ZATLOUKAL Miroslav CZE/CZE ACCR/ACCR WSP Zabel 19 37:12.191 01:41.231 49.64 02:01.459 4 9.0
13 54 HROCH Pavel/HROCH Martin CZE/CZE ACCR/ACCR WSP Zabel 19 37:27.711 01:56.751 49.29 02:01.517 3 8.0
14 17 CUCHE Christophe/FORSTER Stefan SUI/GER FMS/DMSB VMC KTM 18 35:40.485 18 Laps 49.04 02:01.679 4 7.0
15 49 REIMANN Joachim/REIMANN Phillip GER/GER DMSB/DMSB WSP Zabel 18 35:49.691 00:09.206 48.83 02:03.314 3 6.0
16 11 SANDERS Davy/HALLER Andres BEL/GER FMB/DMSB WSP Zabel 18 35:54.683 00:14.198 48.71 02:00.084 3 5.0
17 48 BOUKAL Jan/BOUKAL Pavel CZE/CZE ACCR/ACCR WSP Zabel 18 37:05.822 01:25.337 47.16 02:06.263 14 4.0
18 271 BALTUSIS Tomas/NATKA Tadas LIT/LIT LMSF/LMSF WSP Husqvarna 18 37:19.440 01:38.955 46.87 02:06.833 5 3.0
19 41 VARIAKOJIS Liutauras/PAIPALS Janis LIT/LAT LMSF/LMSF WSP Husqvarna 17 35:47.703 17 Laps 46.16 02:09.382 6 2.0
20 69 HANSAR Joosep/PEEVER Arno EST/EST EMF/EMF VMC KTM 17 36:28.770 00:41.067 45.29 02:08.685 4 1.0
21 85 DIERCKENS Arne/ROSTINGT Luc BEL/FRA FMB/FFM WSP Zabel 17 36:44.060 00:56.357 44.98 01:59.974 3
22 81 KISIL Dmytro/PISKUNOV Oleksandr UKR/UKR FMU/FMU WSP Zabel 16 37:15.255 16 Laps 41.74 02:11.429 3
23 15 VARIK Kert/DAIDERS Lauris EST/LAT EMF/LaMSF WSP Husqvarna 9 16:24.212 9 Laps 53.32 01:59.561 3
24 8 WILKINSON Brett/HUMPHREY Ryan GBR/GBR ACU/ACU WSP Zabel 1 0:14.663 1 Lap 1
25 101 KOLENCIK Petr/HEJHAL Matej CZE/CZE ACCR/ACCR WSP Zabel 1 0:15.681 00:01.018 1

.

Best Lap: 5 HERMANS Koen/MUSSET Nicolas KNMV/FFM in 01:53.437 at 51.411 Km/H

Orion Transponder - www.dsvt.com Results on www.uatiming.com.ua